• Join FlightAware (Why Join?)
  • Login
  • US Flag GB Flag 
14:16 EDT


 

Airport Tracker/Info


-or-


 

Live Flight TrackerFlight Track Log ✈ CPT8773 ✈ 09-Dec-2013 ✈ KCPR - KCOD

Flight Track Log - Related Links

Times and Time Zones

All times are in EST time to prevent confusion due to time zone crossing. See the CPT8773 flight status page for this flight to view local times or setup timezone preferences in your user account.

Time Position Orientation Groundspeed Altitude Reporting Facility
EST Latitude Longitude Course Direction KTS MPH feet Rate Location/Type
09:17 42.9308 -106.4775 349° North 108 124 7,700  Level Denver Center
09:18 42.9575 -106.4744 North 103 119 8,500 780 Climbing Denver Center
09:19 42.9886 -106.4703 North 102 117 9,400 660 Climbing Denver Center
09:20 43.0147 -106.4653 North 100 115 9,900 480 Climbing Denver Center
09:21 43.0539 -106.6869 307° West  Level Estimated
09:21 43.0406 -106.4625 North 99 114 10,400  Level Denver Center
09:22 43.0896 -106.6965 349° North  Level FlightAware Approximate
09:22 43.0697 -106.4586 North 97 112 11,100  Level Denver Center
09:23 43.0908 -106.4589 359° North 89 102 11,600 360 Climbing Denver Center
09:24 43.1142 -106.4589 360° North 87 100 11,900 60 Climbing Denver Center
09:25 43.1508 -106.4583 North 107 123 11,800 -60 Descending Denver Center
09:26 43.1853 -106.4581 360° North 122 140 11,800  Level Denver Center
09:27 43.2178 -106.4622 355° North 124 143 11,900  Climbing Denver Center
09:28 43.2556 -106.4806 341° North 134 154 11,900  Level Denver Center
09:29 43.2628 -106.5278 282° West 134 154 11,900 -60 Level Denver Center
09:30 43.2692 -106.5750 281° West 131 151 11,800 -60 Descending Denver Center
09:31 43.2772 -106.6269 282° West 127 146 11,800  Level Denver Center
09:32 43.2892 -106.6675 292° West 120 138 11,800  Level Salt Lake Center
09:33 43.3092 -106.7000 310° West 117 135 11,800  Level Salt Lake Center
09:34 43.3275 -106.7347 306° West 117 135 11,900  Climbing Salt Lake Center
09:35 43.3500 -106.7753 307° West 119 137 11,900 -60 Level Salt Lake Center
09:36 43.3681 -106.8097 306° West 117 135 11,800  Descending Salt Lake Center
09:37 43.3836 -106.8450 301° West 115 132 11,900  Climbing Salt Lake Center
09:38 43.4047 -106.8819 308° West 111 128 11,800  Descending Salt Lake Center
09:39 43.4208 -106.9133 305° West 107 123 11,900  Climbing Salt Lake Center
09:40 43.4389 -106.9439 309° West 104 120 11,800  Descending Salt Lake Center
09:41 43.4553 -106.9800 302° West 109 125 11,900 60 Climbing Salt Lake Center
09:42 43.4697 -107.0056 308° West 90 104 12,000  Climbing Salt Lake Center
09:43 43.4886 -107.0489 301° West 122 140 11,900 -60 Descending Salt Lake Center
09:44 43.5086 -107.0833 309° West 118 136 11,900  Level Salt Lake Center
09:45 43.5267 -107.1144 309° West 108 124 11,900  Level Salt Lake Center
09:46 43.5403 -107.1431 303° West 95 109 12,000  Climbing Salt Lake Center
09:47 43.5583 -107.1714 311° West 97 112 11,900 -60 Descending Salt Lake Center
09:48 43.5789 -107.2106 306° West 103 119 11,900  Level Salt Lake Center
09:49 43.5917 -107.2350 306° West 94 108 12,000  Climbing Salt Lake Center
09:50 43.6072 -107.2625 308° West 90 104 12,000  Level Salt Lake Center
09:51 43.6258 -107.2953 308° West 97 112 12,000  Level Salt Lake Center
09:52 43.6450 -107.3308 307° West 106 122 12,000  Level Salt Lake Center
09:53 43.6636 -107.3664 306° West 110 127 12,000  Level Salt Lake Center
09:54 43.6811 -107.4039 303° West 113 130 12,000  Level Salt Lake Center
09:55 43.6994 -107.4386 306° West 114 131 12,000  Level Salt Lake Center
09:56 43.7186 -107.4736 307° West 114 131 12,000  Level Salt Lake Center
09:57 43.7375 -107.5100 306° West 115 132 12,000  Level Salt Lake Center
09:58 43.7564 -107.5478 305° West 117 135 12,000  Level Salt Lake Center
09:59 43.7758 -107.5844 306° West 118 136 12,000  Level Salt Lake Center
10:00 43.7989 -107.6286 306° West 118 136 12,000  Level Salt Lake Center
10:01 43.8189 -107.6667 306° West 119 137 12,000  Level Salt Lake Center
10:02 43.8394 -107.7022 309° West 120 138 12,000  Level Salt Lake Center
10:03 43.8597 -107.7406 306° West 120 138 12,000  Level Salt Lake Center
10:04 43.8794 -107.7789 306° West 122 140 12,000  Level Salt Lake Center
10:05 43.8986 -107.8175 305° West 122 140 12,000  Level Salt Lake Center
10:06 43.9200 -107.8558 308° West 123 142 12,000  Level Salt Lake Center
10:07 43.9403 -107.8944 306° West 124 143 12,000  Level Salt Lake Center
10:08 43.9586 -107.9319 304° West 121 139 12,000  Level Salt Lake Center
10:09 43.9786 -107.9694 307° West 121 139 12,000  Level Salt Lake Center
10:10 43.9981 -108.0069 306° West 120 138 12,000 -60 Level Salt Lake Center
10:11 44.0219 -108.0519 306° West 121 139 11,900 -60 Descending Salt Lake Center
10:12 44.0414 -108.0886 306° West 120 138 11,900  Level Salt Lake Center
10:13 44.0614 -108.1267 306° West 120 138 11,900  Level Salt Lake Center
10:15 44.0808 -108.1650 305° West 121 139 11,900  Level Salt Lake Center
10:16 44.1006 -108.2022 306° West 121 139 11,900  Level Salt Lake Center
10:17 44.1200 -108.2383 307° West 119 137 11,900  Level Salt Lake Center
10:18 44.1383 -108.2758 304° West 118 136 11,900  Level Salt Lake Center
10:19 44.1572 -108.3131 305° West 118 136 11,900  Level Salt Lake Center
10:20 44.1764 -108.3500 306° West 118 136 11,900  Level Salt Lake Center
10:21 44.1953 -108.3869 306° West 118 136 11,900  Level Salt Lake Center
10:22 44.2186 -108.4322 306° West 118 136 11,900  Level Salt Lake Center
10:23 44.2375 -108.4706 305° West 119 137 11,900 -180 Level Salt Lake Center
10:24 44.2575 -108.5097 305° West 121 139 11,600 -360 Descending Salt Lake Center
10:25 44.2794 -108.5497 307° West 124 143 11,200 -420 Descending Salt Lake Center
10:26 44.3025 -108.5942 306° West 131 151 10,800 -420 Descending Salt Lake Center
10:27 44.3267 -108.6408 306° West 138 159 10,400 -360 Descending Salt Lake Center
10:28 44.3503 -108.6892 304° West 145 167 10,100 -300 Descending Salt Lake Center